sensor_id;sensor_type;location;lat;lon;timestamp;temperature;humidity
8643;DHT22;4359;49.358;11.256;2022-07-22T00:01:50;15.50;99.90
8643;DHT22;4359;49.358;11.256;2022-07-22T00:04:15;15.50;99.90
8643;DHT22;4359;49.358;11.256;2022-07-22T00:06:42;15.40;99.90
8643;DHT22;4359;49.358;11.256;2022-07-22T00:09:08;15.40;99.90
8643;DHT22;4359;49.358;11.256;2022-07-22T00:11:33;15.40;99.90
8643;DHT22;4359;49.358;11.256;2022-07-22T00:13:59;15.30;99.90
8643;DHT22;4359;49.358;11.256;2022-07-22T00:16:25;15.30;99.90
8643;DHT22;4359;49.358;11.256;2022-07-22T00:18:51;15.30;99.90
8643;DHT22;4359;49.358;11.256;2022-07-22T00:21:17;15.20;99.90
8643;DHT22;4359;49.358;11.256;2022-07-22T00:23:42;15.20;99.90
8643;DHT22;4359;49.358;11.256;2022-07-22T00:26:08;15.20;99.90
8643;DHT22;4359;49.358;11.256;2022-07-22T00:28:34;15.20;99.90
8643;DHT22;4359;49.358;11.256;2022-07-22T00:31:00;15.20;99.90
8643;DHT22;4359;49.358;11.256;2022-07-22T00:33:25;15.10;99.90
8643;DHT22;4359;49.358;11.256;2022-07-22T00:35:51;15.00;99.90
8643;DHT22;4359;49.358;11.256;2022-07-22T00:38:17;15.10;99.90
8643;DHT22;4359;49.358;11.256;2022-07-22T00:40:43;15.10;99.90
8643;DHT22;4359;49.358;11.256;2022-07-22T00:43:08;15.10;99.90
8643;DHT22;4359;49.358;11.256;2022-07-22T00:45:34;15.00;99.90
8643;DHT22;4359;49.358;11.256;2022-07-22T00:48:00;15.00;99.90
8643;DHT22;4359;49.358;11.256;2022-07-22T00:50:26;14.90;99.90
8643;DHT22;4359;49.358;11.256;2022-07-22T00:52:52;15.00;99.90
8643;DHT22;4359;49.358;11.256;2022-07-22T00:55:18;14.90;99.90
8643;DHT22;4359;49.358;11.256;2022-07-22T00:57:43;14.80;99.90
8643;DHT22;4359;49.358;11.256;2022-07-22T01:00:13;14.80;99.90
8643;DHT22;4359;49.358;11.256;2022-07-22T01:02:39;14.80;99.90
8643;DHT22;4359;49.358;11.256;2022-07-22T01:05:05;14.70;99.90
8643;DHT22;4359;49.358;11.256;2022-07-22T01:07:31;14.80;99.90
8643;DHT22;4359;49.358;11.256;2022-07-22T01:09:57;14.80;99.90
8643;DHT22;4359;49.358;11.256;2022-07-22T01:12:23;14.80;99.90
8643;DHT22;4359;49.358;11.256;2022-07-22T01:14:49;14.80;99.90
8643;DHT22;4359;49.358;11.256;2022-07-22T01:17:15;14.80;99.90
8643;DHT22;4359;49.358;11.256;2022-07-22T01:19:41;14.70;99.90
8643;DHT22;4359;49.358;11.256;2022-07-22T01:22:06;14.70;99.90
8643;DHT22;4359;49.358;11.256;2022-07-22T01:24:32;14.70;99.90
8643;DHT22;4359;49.358;11.256;2022-07-22T01:26:59;14.60;99.90
8643;DHT22;4359;49.358;11.256;2022-07-22T01:29:25;14.50;99.90
8643;DHT22;4359;49.358;11.256;2022-07-22T01:31:51;14.50;99.90
8643;DHT22;4359;49.358;11.256;2022-07-22T01:34:16;14.50;99.90
8643;DHT22;4359;49.358;11.256;2022-07-22T01:36:42;14.40;99.90
8643;DHT22;4359;49.358;11.256;2022-07-22T01:39:08;14.40;99.90
8643;DHT22;4359;49.358;11.256;2022-07-22T01:41:33;14.40;99.90
8643;DHT22;4359;49.358;11.256;2022-07-22T01:43:59;14.40;99.90
8643;DHT22;4359;49.358;11.256;2022-07-22T01:46:25;14.40;99.90
8643;DHT22;4359;49.358;11.256;2022-07-22T01:48:51;14.40;99.90
8643;DHT22;4359;49.358;11.256;2022-07-22T01:51:18;14.40;99.90
8643;DHT22;4359;49.358;11.256;2022-07-22T01:53:43;14.40;99.90
8643;DHT22;4359;49.358;11.256;2022-07-22T01:56:09;14.30;99.90
8643;DHT22;4359;49.358;11.256;2022-07-22T01:58:35;14.20;99.90
8643;DHT22;4359;49.358;11.256;2022-07-22T02:01:01;14.30;99.90
8643;DHT22;4359;49.358;11.256;2022-07-22T02:03:26;14.40;99.90
8643;DHT22;4359;49.358;11.256;2022-07-22T02:05:52;14.40;99.90
8643;DHT22;4359;49.358;11.256;2022-07-22T02:08:18;14.30;99.90
8643;DHT22;4359;49.358;11.256;2022-07-22T02:10:44;14.30;99.90
8643;DHT22;4359;49.358;11.256;2022-07-22T02:13:10;14.30;99.90
8643;DHT22;4359;49.358;11.256;2022-07-22T02:15:36;14.30;99.90
8643;DHT22;4359;49.358;11.256;2022-07-22T02:18:14;14.20;99.90
8643;DHT22;4359;49.358;11.256;2022-07-22T02:20:40;14.20;99.90
8643;DHT22;4359;49.358;11.256;2022-07-22T02:23:06;14.20;99.90
8643;DHT22;4359;49.358;11.256;2022-07-22T02:25:33;14.10;99.90
8643;DHT22;4359;49.358;11.256;2022-07-22T02:27:59;14.10;99.90
8643;DHT22;4359;49.358;11.256;2022-07-22T02:30:25;14.10;99.90
8643;DHT22;4359;49.358;11.256;2022-07-22T02:32:51;14.00;99.90
8643;DHT22;4359;49.358;11.256;2022-07-22T02:35:17;14.00;99.90
8643;DHT22;4359;49.358;11.256;2022-07-22T02:37:43;14.00;99.90
8643;DHT22;4359;49.358;11.256;2022-07-22T02:40:09;14.00;99.90
8643;DHT22;4359;49.358;11.256;2022-07-22T02:42:35;13.90;99.90
8643;DHT22;4359;49.358;11.256;2022-07-22T02:45:01;13.80;99.90
8643;DHT22;4359;49.358;11.256;2022-07-22T02:47:26;13.60;99.90
8643;DHT22;4359;49.358;11.256;2022-07-22T02:49:52;13.50;99.90
8643;DHT22;4359;49.358;11.256;2022-07-22T02:52:18;13.40;99.90
8643;DHT22;4359;49.358;11.256;2022-07-22T02:54:43;13.30;99.90
8643;DHT22;4359;49.358;11.256;2022-07-22T02:57:09;13.30;99.90
8643;DHT22;4359;49.358;11.256;2022-07-22T02:59:35;13.30;99.90
8643;DHT22;4359;49.358;11.256;2022-07-22T03:02:02;13.40;99.90
8643;DHT22;4359;49.358;11.256;2022-07-22T03:04:28;13.30;99.90
8643;DHT22;4359;49.358;11.256;2022-07-22T03:06:53;13.20;99.90
8643;DHT22;4359;49.358;11.256;2022-07-22T03:09:19;13.20;99.90
8643;DHT22;4359;49.358;11.256;2022-07-22T03:11:45;13.10;99.90
8643;DHT22;4359;49.358;11.256;2022-07-22T03:14:10;13.00;99.90
8643;DHT22;4359;49.358;11.256;2022-07-22T03:16:37;13.10;99.90
8643;DHT22;4359;49.358;11.256;2022-07-22T03:19:02;13.10;99.90
8643;DHT22;4359;49.358;11.256;2022-07-22T03:21:28;13.10;99.90
8643;DHT22;4359;49.358;11.256;2022-07-22T03:23:54;13.10;99.90
8643;DHT22;4359;49.358;11.256;2022-07-22T03:26:21;13.10;99.90
8643;DHT22;4359;49.358;11.256;2022-07-22T03:28:47;13.10;99.90
8643;DHT22;4359;49.358;11.256;2022-07-22T03:31:13;13.00;99.90
8643;DHT22;4359;49.358;11.256;2022-07-22T03:33:39;13.00;99.90
8643;DHT22;4359;49.358;11.256;2022-07-22T03:36:04;12.90;99.90
8643;DHT22;4359;49.358;11.256;2022-07-22T03:38:34;12.90;99.90
8643;DHT22;4359;49.358;11.256;2022-07-22T03:41:00;12.80;99.90
8643;DHT22;4359;49.358;11.256;2022-07-22T03:43:25;12.70;99.90
8643;DHT22;4359;49.358;11.256;2022-07-22T03:45:51;12.70;99.90
8643;DHT22;4359;49.358;11.256;2022-07-22T03:48:17;12.70;99.90
8643;DHT22;4359;49.358;11.256;2022-07-22T03:50:42;12.70;99.90
8643;DHT22;4359;49.358;11.256;2022-07-22T03:53:08;12.70;99.90
8643;DHT22;4359;49.358;11.256;2022-07-22T03:55:34;12.60;99.90
8643;DHT22;4359;49.358;11.256;2022-07-22T03:57:59;12.60;99.90
8643;DHT22;4359;49.358;11.256;2022-07-22T04:00:25;12.50;99.90
8643;DHT22;4359;49.358;11.256;2022-07-22T04:02:51;12.50;99.90
8643;DHT22;4359;49.358;11.256;2022-07-22T04:05:16;12.50;99.90
8643;DHT22;4359;49.358;11.256;2022-07-22T04:07:42;12.60;99.90
8643;DHT22;4359;49.358;11.256;2022-07-22T04:10:08;12.60;99.90
8643;DHT22;4359;49.358;11.256;2022-07-22T04:12:35;12.60;99.90
8643;DHT22;4359;49.358;11.256;2022-07-22T04:15:03;12.70;99.90
8643;DHT22;4359;49.358;11.256;2022-07-22T04:17:28;12.70;99.90
8643;DHT22;4359;49.358;11.256;2022-07-22T04:19:55;12.70;99.90
8643;DHT22;4359;49.358;11.256;2022-07-22T04:22:21;12.80;99.90
8643;DHT22;4359;49.358;11.256;2022-07-22T04:24:46;12.80;99.90
8643;DHT22;4359;49.358;11.256;2022-07-22T04:27:12;12.90;99.90
8643;DHT22;4359;49.358;11.256;2022-07-22T04:29:38;13.00;99.90
8643;DHT22;4359;49.358;11.256;2022-07-22T04:32:04;13.10;99.90
8643;DHT22;4359;49.358;11.256;2022-07-22T04:34:29;13.10;99.90
8643;DHT22;4359;49.358;11.256;2022-07-22T04:36:55;13.20;99.90
8643;DHT22;4359;49.358;11.256;2022-07-22T04:39:21;13.30;99.90
8643;DHT22;4359;49.358;11.256;2022-07-22T04:41:46;13.30;99.90
8643;DHT22;4359;49.358;11.256;2022-07-22T04:44:12;13.40;99.90
8643;DHT22;4359;49.358;11.256;2022-07-22T04:46:38;13.50;99.90
8643;DHT22;4359;49.358;11.256;2022-07-22T04:49:03;13.70;99.90
8643;DHT22;4359;49.358;11.256;2022-07-22T04:51:29;13.90;99.90
8643;DHT22;4359;49.358;11.256;2022-07-22T04:53:55;14.20;99.90
8643;DHT22;4359;49.358;11.256;2022-07-22T04:56:21;14.40;99.90
8643;DHT22;4359;49.358;11.256;2022-07-22T04:58:47;14.60;99.90
8643;DHT22;4359;49.358;11.256;2022-07-22T05:01:12;14.80;99.90
8643;DHT22;4359;49.358;11.256;2022-07-22T05:03:41;15.00;99.90
8643;DHT22;4359;49.358;11.256;2022-07-22T05:06:08;15.20;99.90
8643;DHT22;4359;49.358;11.256;2022-07-22T05:08:33;15.40;99.90
8643;DHT22;4359;49.358;11.256;2022-07-22T05:10:59;15.60;99.90
8643;DHT22;4359;49.358;11.256;2022-07-22T05:13:25;15.90;99.90
8643;DHT22;4359;49.358;11.256;2022-07-22T05:15:50;16.10;99.90
8643;DHT22;4359;49.358;11.256;2022-07-22T05:18:16;16.30;99.90
8643;DHT22;4359;49.358;11.256;2022-07-22T05:20:42;16.40;99.90
8643;DHT22;4359;49.358;11.256;2022-07-22T05:23:08;16.50;99.90
8643;DHT22;4359;49.358;11.256;2022-07-22T05:25:33;16.50;99.90
8643;DHT22;4359;49.358;11.256;2022-07-22T05:27:59;16.60;99.90
8643;DHT22;4359;49.358;11.256;2022-07-22T05:30:25;16.80;99.90
8643;DHT22;4359;49.358;11.256;2022-07-22T05:32:52;17.00;99.90
8643;DHT22;4359;49.358;11.256;2022-07-22T05:35:18;17.20;99.90
8643;DHT22;4359;49.358;11.256;2022-07-22T05:37:44;17.40;99.90
8643;DHT22;4359;49.358;11.256;2022-07-22T05:40:11;17.70;99.90
8643;DHT22;4359;49.358;11.256;2022-07-22T05:42:37;18.00;99.90
8643;DHT22;4359;49.358;11.256;2022-07-22T05:45:03;18.20;99.90
8643;DHT22;4359;49.358;11.256;2022-07-22T05:47:28;18.30;99.90
8643;DHT22;4359;49.358;11.256;2022-07-22T05:49:54;18.30;99.90
8643;DHT22;4359;49.358;11.256;2022-07-22T05:52:20;18.40;99.90
8643;DHT22;4359;49.358;11.256;2022-07-22T05:54:46;18.50;99.90
8643;DHT22;4359;49.358;11.256;2022-07-22T05:57:11;18.60;99.90
8643;DHT22;4359;49.358;11.256;2022-07-22T05:59:37;19.00;99.90
8643;DHT22;4359;49.358;11.256;2022-07-22T06:02:04;19.20;99.90
8643;DHT22;4359;49.358;11.256;2022-07-22T06:04:30;19.50;99.90
8643;DHT22;4359;49.358;11.256;2022-07-22T06:06:56;19.60;99.90
8643;DHT22;4359;49.358;11.256;2022-07-22T06:09:22;19.80;99.90
8643;DHT22;4359;49.358;11.256;2022-07-22T06:11:48;19.90;99.90
8643;DHT22;4359;49.358;11.256;2022-07-22T06:14:13;20.20;99.90
8643;DHT22;4359;49.358;11.256;2022-07-22T06:16:39;20.40;99.90
8643;DHT22;4359;49.358;11.256;2022-07-22T06:19:05;20.60;99.90
8643;DHT22;4359;49.358;11.256;2022-07-22T06:21:30;20.90;99.90
8643;DHT22;4359;49.358;11.256;2022-07-22T06:23:56;21.00;99.90
8643;DHT22;4359;49.358;11.256;2022-07-22T06:26:22;21.20;99.90
8643;DHT22;4359;49.358;11.256;2022-07-22T06:28:47;21.30;99.90
8643;DHT22;4359;49.358;11.256;2022-07-22T06:31:13;21.40;99.90
8643;DHT22;4359;49.358;11.256;2022-07-22T06:33:39;21.50;99.90
8643;DHT22;4359;49.358;11.256;2022-07-22T06:36:05;21.60;99.90
8643;DHT22;4359;49.358;11.256;2022-07-22T06:38:31;21.60;99.90
8643;DHT22;4359;49.358;11.256;2022-07-22T06:40:56;21.70;99.90
8643;DHT22;4359;49.358;11.256;2022-07-22T06:43:22;21.90;99.90
8643;DHT22;4359;49.358;11.256;2022-07-22T06:45:48;22.10;99.90
8643;DHT22;4359;49.358;11.256;2022-07-22T06:48:14;22.20;99.90
8643;DHT22;4359;49.358;11.256;2022-07-22T06:50:39;22.30;99.90
8643;DHT22;4359;49.358;11.256;2022-07-22T06:53:05;22.40;99.90
8643;DHT22;4359;49.358;11.256;2022-07-22T06:55:31;22.60;99.90
8643;DHT22;4359;49.358;11.256;2022-07-22T06:57:57;22.80;99.90
8643;DHT22;4359;49.358;11.256;2022-07-22T07:00:23;22.90;99.90
8643;DHT22;4359;49.358;11.256;2022-07-22T07:02:49;23.10;99.90
8643;DHT22;4359;49.358;11.256;2022-07-22T07:05:15;23.10;99.90
8643;DHT22;4359;49.358;11.256;2022-07-22T07:07:41;23.30;99.90
8643;DHT22;4359;49.358;11.256;2022-07-22T07:10:07;23.50;99.90
8643;DHT22;4359;49.358;11.256;2022-07-22T07:12:35;23.70;99.90
8643;DHT22;4359;49.358;11.256;2022-07-22T07:15:01;23.90;99.90
8643;DHT22;4359;49.358;11.256;2022-07-22T07:17:26;24.10;99.90
8643;DHT22;4359;49.358;11.256;2022-07-22T07:19:52;24.30;99.90
8643;DHT22;4359;49.358;11.256;2022-07-22T07:22:18;24.40;99.90
8643;DHT22;4359;49.358;11.256;2022-07-22T07:24:43;24.50;99.90
8643;DHT22;4359;49.358;11.256;2022-07-22T07:27:09;24.40;99.90
8643;DHT22;4359;49.358;11.256;2022-07-22T07:29:35;24.50;99.90
8643;DHT22;4359;49.358;11.256;2022-07-22T07:32:00;24.70;99.90
8643;DHT22;4359;49.358;11.256;2022-07-22T07:34:26;24.60;99.90
8643;DHT22;4359;49.358;11.256;2022-07-22T07:36:52;24.70;99.90
8643;DHT22;4359;49.358;11.256;2022-07-22T07:39:18;25.00;99.90
8643;DHT22;4359;49.358;11.256;2022-07-22T07:41:43;25.40;99.90
8643;DHT22;4359;49.358;11.256;2022-07-22T07:44:09;25.80;99.90
8643;DHT22;4359;49.358;11.256;2022-07-22T07:46:34;26.10;99.90
8643;DHT22;4359;49.358;11.256;2022-07-22T07:49:00;26.30;99.90
8643;DHT22;4359;49.358;11.256;2022-07-22T07:51:26;26.30;99.90
8643;DHT22;4359;49.358;11.256;2022-07-22T07:53:52;26.20;99.90
8643;DHT22;4359;49.358;11.256;2022-07-22T07:56:17;26.60;99.90
8643;DHT22;4359;49.358;11.256;2022-07-22T07:58:43;26.90;99.90
8643;DHT22;4359;49.358;11.256;2022-07-22T08:01:09;27.00;99.90
8643;DHT22;4359;49.358;11.256;2022-07-22T08:03:34;27.40;99.90
8643;DHT22;4359;49.358;11.256;2022-07-22T08:06:00;27.30;99.90
8643;DHT22;4359;49.358;11.256;2022-07-22T08:08:27;27.30;99.90
8643;DHT22;4359;49.358;11.256;2022-07-22T08:10:52;27.20;99.90
8643;DHT22;4359;49.358;11.256;2022-07-22T08:13:18;27.10;99.90
8643;DHT22;4359;49.358;11.256;2022-07-22T08:15:44;27.60;99.90
8643;DHT22;4359;49.358;11.256;2022-07-22T08:18:10;27.80;99.90
8643;DHT22;4359;49.358;11.256;2022-07-22T08:20:36;27.90;99.90
8643;DHT22;4359;49.358;11.256;2022-07-22T08:23:01;28.00;99.90
8643;DHT22;4359;49.358;11.256;2022-07-22T08:25:27;28.40;99.90
8643;DHT22;4359;49.358;11.256;2022-07-22T08:27:53;28.40;99.90
8643;DHT22;4359;49.358;11.256;2022-07-22T08:30:19;28.60;99.90
8643;DHT22;4359;49.358;11.256;2022-07-22T08:32:45;29.00;99.90
8643;DHT22;4359;49.358;11.256;2022-07-22T08:35:11;28.80;99.90
8643;DHT22;4359;49.358;11.256;2022-07-22T08:37:37;28.50;99.90
8643;DHT22;4359;49.358;11.256;2022-07-22T08:40:04;28.70;99.90
8643;DHT22;4359;49.358;11.256;2022-07-22T08:42:30;28.90;99.90
8643;DHT22;4359;49.358;11.256;2022-07-22T08:44:56;28.40;99.90
8643;DHT22;4359;49.358;11.256;2022-07-22T08:47:23;27.70;99.90
8643;DHT22;4359;49.358;11.256;2022-07-22T08:49:49;27.50;99.90
8643;DHT22;4359;49.358;11.256;2022-07-22T08:52:15;27.70;99.90
8643;DHT22;4359;49.358;11.256;2022-07-22T08:54:41;27.90;99.90
8643;DHT22;4359;49.358;11.256;2022-07-22T08:57:07;28.30;99.90
8643;DHT22;4359;49.358;11.256;2022-07-22T08:59:32;28.40;99.90
8643;DHT22;4359;49.358;11.256;2022-07-22T09:02:09;28.90;99.90
8643;DHT22;4359;49.358;11.256;2022-07-22T09:05:00;29.30;99.90
8643;DHT22;4359;49.358;11.256;2022-07-22T09:07:31;29.40;99.90
8643;DHT22;4359;49.358;11.256;2022-07-22T09:09:58;29.90;99.60
8643;DHT22;4359;49.358;11.256;2022-07-22T09:12:25;30.20;99.30
8643;DHT22;4359;49.358;11.256;2022-07-22T09:14:55;30.30;98.20
8643;DHT22;4359;49.358;11.256;2022-07-22T09:17:40;30.00;98.20
8643;DHT22;4359;49.358;11.256;2022-07-22T09:20:18;30.10;98.20
8643;DHT22;4359;49.358;11.256;2022-07-22T09:22:48;29.70;98.40
8643;DHT22;4359;49.358;11.256;2022-07-22T09:25:31;29.00;98.60
8643;DHT22;4359;49.358;11.256;2022-07-22T09:30:52;28.30;98.70
8643;DHT22;4359;49.358;11.256;2022-07-22T09:33:19;28.50;99.90
8643;DHT22;4359;49.358;11.256;2022-07-22T09:35:46;29.10;99.60
8643;DHT22;4359;49.358;11.256;2022-07-22T09:38:13;29.70;98.40
8643;DHT22;4359;49.358;11.256;2022-07-22T09:40:42;29.50;97.40
8643;DHT22;4359;49.358;11.256;2022-07-22T09:43:14;29.40;98.90
8643;DHT22;4359;49.358;11.256;2022-07-22T09:45:53;30.00;97.40
8643;DHT22;4359;49.358;11.256;2022-07-22T09:48:21;30.50;96.90
8643;DHT22;4359;49.358;11.256;2022-07-22T09:50:48;31.00;96.10
8643;DHT22;4359;49.358;11.256;2022-07-22T09:53:15;30.90;96.10
8643;DHT22;4359;49.358;11.256;2022-07-22T09:55:41;31.00;95.70
8643;DHT22;4359;49.358;11.256;2022-07-22T09:58:07;30.60;95.60
8643;DHT22;4359;49.358;11.256;2022-07-22T10:00:35;30.50;96.20
8643;DHT22;4359;49.358;11.256;2022-07-22T10:03:03;31.00;95.50
8643;DHT22;4359;49.358;11.256;2022-07-22T10:05:33;31.60;94.40
8643;DHT22;4359;49.358;11.256;2022-07-22T10:08:01;32.00;93.70
8643;DHT22;4359;49.358;11.256;2022-07-22T10:10:28;31.60;93.80
8643;DHT22;4359;49.358;11.256;2022-07-22T10:12:56;30.80;94.40
8643;DHT22;4359;49.358;11.256;2022-07-22T10:15:24;30.90;94.30
8643;DHT22;4359;49.358;11.256;2022-07-22T10:17:51;31.00;94.40
8643;DHT22;4359;49.358;11.256;2022-07-22T10:20:20;31.10;94.00
8643;DHT22;4359;49.358;11.256;2022-07-22T10:22:49;31.30;94.10
8643;DHT22;4359;49.358;11.256;2022-07-22T10:25:15;31.10;93.50
8643;DHT22;4359;49.358;11.256;2022-07-22T10:28:00;31.00;94.30
8643;DHT22;4359;49.358;11.256;2022-07-22T10:30:36;31.30;93.50
8643;DHT22;4359;49.358;11.256;2022-07-22T10:33:14;31.70;93.20
8643;DHT22;4359;49.358;11.256;2022-07-22T10:38:10;32.30;92.20
8643;DHT22;4359;49.358;11.256;2022-07-22T10:43:29;31.90;91.80
8643;DHT22;4359;49.358;11.256;2022-07-22T10:46:00;32.60;91.30
8643;DHT22;4359;49.358;11.256;2022-07-22T10:51:35;32.00;91.10
8643;DHT22;4359;49.358;11.256;2022-07-22T10:54:01;31.40;92.10
8643;DHT22;4359;49.358;11.256;2022-07-22T10:59:15;32.40;90.50
8643;DHT22;4359;49.358;11.256;2022-07-22T11:01:47;31.90;90.80
8643;DHT22;4359;49.358;11.256;2022-07-22T11:04:14;32.40;90.50
8643;DHT22;4359;49.358;11.256;2022-07-22T11:06:40;33.10;90.40
8643;DHT22;4359;49.358;11.256;2022-07-22T11:09:08;33.30;90.10
8643;DHT22;4359;49.358;11.256;2022-07-22T11:14:43;33.60;87.80
8643;DHT22;4359;49.358;11.256;2022-07-22T11:17:10;33.70;86.70
8643;DHT22;4359;49.358;11.256;2022-07-22T11:19:37;33.80;86.90
8643;DHT22;4359;49.358;11.256;2022-07-22T11:24:31;31.40;89.70
8643;DHT22;4359;49.358;11.256;2022-07-22T11:26:58;32.00;91.20
8643;DHT22;4359;49.358;11.256;2022-07-22T11:29:32;32.50;89.00
8643;DHT22;4359;49.358;11.256;2022-07-22T11:32:03;32.40;88.00
8643;DHT22;4359;49.358;11.256;2022-07-22T11:34:30;32.90;88.80
8643;DHT22;4359;49.358;11.256;2022-07-22T11:36:56;33.00;87.10
8643;DHT22;4359;49.358;11.256;2022-07-22T11:39:25;32.80;87.60
8643;DHT22;4359;49.358;11.256;2022-07-22T11:41:52;33.10;86.30
8643;DHT22;4359;49.358;11.256;2022-07-22T11:44:20;33.70;87.80
8643;DHT22;4359;49.358;11.256;2022-07-22T11:46:47;34.30;85.30
8643;DHT22;4359;49.358;11.256;2022-07-22T11:49:15;33.70;83.80
8643;DHT22;4359;49.358;11.256;2022-07-22T11:51:41;32.10;86.20
8643;DHT22;4359;49.358;11.256;2022-07-22T11:54:07;31.40;88.00
8643;DHT22;4359;49.358;11.256;2022-07-22T11:56:34;31.80;88.30
8643;DHT22;4359;49.358;11.256;2022-07-22T11:59:00;32.60;88.10
8643;DHT22;4359;49.358;11.256;2022-07-22T12:01:32;33.30;86.10
8643;DHT22;4359;49.358;11.256;2022-07-22T12:04:07;33.20;84.70
8643;DHT22;4359;49.358;11.256;2022-07-22T12:06:35;32.70;85.70
8643;DHT22;4359;49.358;11.256;2022-07-22T12:09:13;32.80;86.00
8643;DHT22;4359;49.358;11.256;2022-07-22T12:11:42;33.30;83.90
8643;DHT22;4359;49.358;11.256;2022-07-22T12:14:16;32.60;84.70
8643;DHT22;4359;49.358;11.256;2022-07-22T12:16:44;32.50;84.90
8643;DHT22;4359;49.358;11.256;2022-07-22T12:19:18;32.50;84.40
8643;DHT22;4359;49.358;11.256;2022-07-22T12:22:04;33.20;83.70
8643;DHT22;4359;49.358;11.256;2022-07-22T12:24:44;34.10;81.20
8643;DHT22;4359;49.358;11.256;2022-07-22T12:27:17;34.60;80.50
8643;DHT22;4359;49.358;11.256;2022-07-22T12:29:45;34.90;79.90
8643;DHT22;4359;49.358;11.256;2022-07-22T12:34:46;35.00;77.90
8643;DHT22;4359;49.358;11.256;2022-07-22T12:42:27;35.00;77.20
8643;DHT22;4359;49.358;11.256;2022-07-22T12:47:53;35.60;76.70
8643;DHT22;4359;49.358;11.256;2022-07-22T12:50:28;35.50;75.60
8643;DHT22;4359;49.358;11.256;2022-07-22T12:55:24;36.30;74.60
8643;DHT22;4359;49.358;11.256;2022-07-22T12:57:50;36.10;74.30
8643;DHT22;4359;49.358;11.256;2022-07-22T13:00:21;36.00;75.80
8643;DHT22;4359;49.358;11.256;2022-07-22T13:02:47;36.50;73.90
8643;DHT22;4359;49.358;11.256;2022-07-22T13:05:13;36.60;74.40
8643;DHT22;4359;49.358;11.256;2022-07-22T13:07:40;37.10;72.20
8643;DHT22;4359;49.358;11.256;2022-07-22T13:10:06;36.90;72.20
8643;DHT22;4359;49.358;11.256;2022-07-22T13:12:32;36.60;71.70
8643;DHT22;4359;49.358;11.256;2022-07-22T13:14:58;35.40;73.90
8643;DHT22;4359;49.358;11.256;2022-07-22T13:17:23;34.90;73.80
8643;DHT22;4359;49.358;11.256;2022-07-22T13:19:49;34.90;74.20
8643;DHT22;4359;49.358;11.256;2022-07-22T13:22:14;35.10;74.30
8643;DHT22;4359;49.358;11.256;2022-07-22T13:24:40;35.40;73.70
8643;DHT22;4359;49.358;11.256;2022-07-22T13:27:06;35.10;72.00
8643;DHT22;4359;49.358;11.256;2022-07-22T13:29:31;34.90;72.40
8643;DHT22;4359;49.358;11.256;2022-07-22T13:31:57;34.90;72.20
8643;DHT22;4359;49.358;11.256;2022-07-22T13:34:23;34.90;72.90
8643;DHT22;4359;49.358;11.256;2022-07-22T13:36:48;35.30;73.40
8643;DHT22;4359;49.358;11.256;2022-07-22T13:39:14;35.70;73.30
8643;DHT22;4359;49.358;11.256;2022-07-22T13:41:40;36.10;72.70
8643;DHT22;4359;49.358;11.256;2022-07-22T13:44:05;36.50;71.20
8643;DHT22;4359;49.358;11.256;2022-07-22T13:46:35;36.80;72.10
8643;DHT22;4359;49.358;11.256;2022-07-22T13:49:01;37.20;70.00
8643;DHT22;4359;49.358;11.256;2022-07-22T13:51:26;37.30;69.90
8643;DHT22;4359;49.358;11.256;2022-07-22T13:53:52;37.30;69.10
8643;DHT22;4359;49.358;11.256;2022-07-22T13:56:18;37.10;68.70
8643;DHT22;4359;49.358;11.256;2022-07-22T13:58:43;36.70;68.40
8643;DHT22;4359;49.358;11.256;2022-07-22T14:01:09;35.90;68.80
8643;DHT22;4359;49.358;11.256;2022-07-22T14:03:36;36.00;70.40
8643;DHT22;4359;49.358;11.256;2022-07-22T14:06:03;36.40;69.50
8643;DHT22;4359;49.358;11.256;2022-07-22T14:08:28;37.00;69.10
8643;DHT22;4359;49.358;11.256;2022-07-22T14:10:54;37.10;68.60
8643;DHT22;4359;49.358;11.256;2022-07-22T14:13:20;37.00;68.30
8643;DHT22;4359;49.358;11.256;2022-07-22T14:15:45;36.50;67.30
8643;DHT22;4359;49.358;11.256;2022-07-22T14:18:11;36.20;68.90
8643;DHT22;4359;49.358;11.256;2022-07-22T14:20:37;36.70;69.00
8643;DHT22;4359;49.358;11.256;2022-07-22T14:23:03;36.40;68.70
8643;DHT22;4359;49.358;11.256;2022-07-22T14:25:31;36.50;68.30
8643;DHT22;4359;49.358;11.256;2022-07-22T14:27:56;36.80;67.50
8643;DHT22;4359;49.358;11.256;2022-07-22T14:30:22;37.00;66.60
8643;DHT22;4359;49.358;11.256;2022-07-22T14:32:48;37.20;66.20
8643;DHT22;4359;49.358;11.256;2022-07-22T14:35:14;37.60;65.90
8643;DHT22;4359;49.358;11.256;2022-07-22T14:37:39;37.40;65.70
8643;DHT22;4359;49.358;11.256;2022-07-22T14:40:05;37.90;65.30
8643;DHT22;4359;49.358;11.256;2022-07-22T14:42:31;37.90;64.30
8643;DHT22;4359;49.358;11.256;2022-07-22T14:44:57;38.40;65.30
8643;DHT22;4359;49.358;11.256;2022-07-22T14:47:22;39.00;63.10
8643;DHT22;4359;49.358;11.256;2022-07-22T14:49:48;39.10;62.60
8643;DHT22;4359;49.358;11.256;2022-07-22T14:52:14;38.60;63.40
8643;DHT22;4359;49.358;11.256;2022-07-22T14:54:39;38.80;62.70
8643;DHT22;4359;49.358;11.256;2022-07-22T14:57:05;38.50;62.40
8643;DHT22;4359;49.358;11.256;2022-07-22T14:59:31;37.90;63.20
8643;DHT22;4359;49.358;11.256;2022-07-22T15:01:56;37.40;63.90
8643;DHT22;4359;49.358;11.256;2022-07-22T15:04:22;38.00;63.70
8643;DHT22;4359;49.358;11.256;2022-07-22T15:06:48;38.80;62.30
8643;DHT22;4359;49.358;11.256;2022-07-22T15:09:14;39.40;61.50
8643;DHT22;4359;49.358;11.256;2022-07-22T15:11:39;39.40;60.70
8643;DHT22;4359;49.358;11.256;2022-07-22T15:14:05;39.40;60.70
8643;DHT22;4359;49.358;11.256;2022-07-22T15:16:31;39.70;60.80
8643;DHT22;4359;49.358;11.256;2022-07-22T15:18:57;39.40;60.00
8643;DHT22;4359;49.358;11.256;2022-07-22T15:21:22;39.30;60.50
8643;DHT22;4359;49.358;11.256;2022-07-22T15:23:48;39.40;60.10
8643;DHT22;4359;49.358;11.256;2022-07-22T15:26:14;39.70;60.80
8643;DHT22;4359;49.358;11.256;2022-07-22T15:28:40;39.60;60.80
8643;DHT22;4359;49.358;11.256;2022-07-22T15:31:06;39.10;60.40
8643;DHT22;4359;49.358;11.256;2022-07-22T15:33:32;39.50;59.90
8643;DHT22;4359;49.358;11.256;2022-07-22T15:35:58;39.40;61.00
8643;DHT22;4359;49.358;11.256;2022-07-22T15:38:24;39.60;60.00
8643;DHT22;4359;49.358;11.256;2022-07-22T15:40:49;39.80;59.10
8643;DHT22;4359;49.358;11.256;2022-07-22T15:43:15;38.70;60.30
8643;DHT22;4359;49.358;11.256;2022-07-22T15:45:41;36.20;62.90
8643;DHT22;4359;49.358;11.256;2022-07-22T15:48:07;35.10;64.80
8643;DHT22;4359;49.358;11.256;2022-07-22T15:50:33;34.20;66.70
8643;DHT22;4359;49.358;11.256;2022-07-22T15:52:58;33.90;66.90
8643;DHT22;4359;49.358;11.256;2022-07-22T15:55:24;33.70;68.10
8643;DHT22;4359;49.358;11.256;2022-07-22T15:57:50;33.90;68.20
8643;DHT22;4359;49.358;11.256;2022-07-22T16:00:34;33.70;67.40
8643;DHT22;4359;49.358;11.256;2022-07-22T16:03:00;33.50;68.00
8643;DHT22;4359;49.358;11.256;2022-07-22T16:05:26;33.50;67.90
8643;DHT22;4359;49.358;11.256;2022-07-22T16:07:53;33.60;68.10
8643;DHT22;4359;49.358;11.256;2022-07-22T16:10:19;33.50;67.60
8643;DHT22;4359;49.358;11.256;2022-07-22T16:12:45;33.60;67.70
8643;DHT22;4359;49.358;11.256;2022-07-22T16:15:10;33.60;67.60